sensor_id;sensor_type;location;lat;lon;timestamp;temperature;humidity
67750;DHT22;54550;48.838;8.828;2023-05-25T00:00:32;7.00;99.90
67750;DHT22;54550;48.838;8.828;2023-05-25T00:02:58;6.90;99.90
67750;DHT22;54550;48.838;8.828;2023-05-25T00:05:23;6.80;99.90
67750;DHT22;54550;48.838;8.828;2023-05-25T00:07:52;6.80;99.90
67750;DHT22;54550;48.838;8.828;2023-05-25T00:10:18;6.60;99.90
67750;DHT22;54550;48.838;8.828;2023-05-25T00:12:43;6.60;99.90
67750;DHT22;54550;48.838;8.828;2023-05-25T00:15:09;6.40;99.90
67750;DHT22;54550;48.838;8.828;2023-05-25T00:17:35;6.30;99.90
67750;DHT22;54550;48.838;8.828;2023-05-25T00:20:02;6.30;99.90
67750;DHT22;54550;48.838;8.828;2023-05-25T00:22:32;6.20;99.90
67750;DHT22;54550;48.838;8.828;2023-05-25T00:24:58;6.10;99.90
67750;DHT22;54550;48.838;8.828;2023-05-25T00:27:24;6.00;99.90
67750;DHT22;54550;48.838;8.828;2023-05-25T00:29:49;5.90;99.90
67750;DHT22;54550;48.838;8.828;2023-05-25T00:32:15;5.90;99.90
67750;DHT22;54550;48.838;8.828;2023-05-25T00:34:41;5.90;99.90
67750;DHT22;54550;48.838;8.828;2023-05-25T00:37:06;5.90;99.90
67750;DHT22;54550;48.838;8.828;2023-05-25T00:39:32;6.00;99.90
67750;DHT22;54550;48.838;8.828;2023-05-25T00:41:58;6.30;99.90
67750;DHT22;54550;48.838;8.828;2023-05-25T00:44:25;6.40;99.90
67750;DHT22;54550;48.838;8.828;2023-05-25T00:46:51;6.50;99.90
67750;DHT22;54550;48.838;8.828;2023-05-25T00:49:18;6.40;99.90
67750;DHT22;54550;48.838;8.828;2023-05-25T00:51:46;6.40;99.90
67750;DHT22;54550;48.838;8.828;2023-05-25T00:54:15;6.30;99.90
67750;DHT22;54550;48.838;8.828;2023-05-25T00:56:49;6.30;99.90
67750;DHT22;54550;48.838;8.828;2023-05-25T00:59:28;6.40;99.90
67750;DHT22;54550;48.838;8.828;2023-05-25T01:01:58;6.30;99.90
67750;DHT22;54550;48.838;8.828;2023-05-25T01:04:27;6.40;99.90
67750;DHT22;54550;48.838;8.828;2023-05-25T01:06:56;6.50;99.90
67750;DHT22;54550;48.838;8.828;2023-05-25T01:09:23;6.50;99.90
67750;DHT22;54550;48.838;8.828;2023-05-25T01:11:52;6.40;99.90
67750;DHT22;54550;48.838;8.828;2023-05-25T01:14:19;6.30;99.90
67750;DHT22;54550;48.838;8.828;2023-05-25T01:16:46;6.20;99.90
67750;DHT22;54550;48.838;8.828;2023-05-25T01:19:12;6.10;99.90
67750;DHT22;54550;48.838;8.828;2023-05-25T01:21:43;6.10;99.90
67750;DHT22;54550;48.838;8.828;2023-05-25T01:24:55;6.00;99.90
67750;DHT22;54550;48.838;8.828;2023-05-25T01:27:45;6.00;99.90
67750;DHT22;54550;48.838;8.828;2023-05-25T01:30:15;6.00;99.90
67750;DHT22;54550;48.838;8.828;2023-05-25T01:32:42;6.10;99.90
67750;DHT22;54550;48.838;8.828;2023-05-25T01:35:08;6.20;99.90
67750;DHT22;54550;48.838;8.828;2023-05-25T01:37:35;6.20;99.90
67750;DHT22;54550;48.838;8.828;2023-05-25T01:40:02;6.20;99.90
67750;DHT22;54550;48.838;8.828;2023-05-25T01:42:30;6.20;99.90
67750;DHT22;54550;48.838;8.828;2023-05-25T01:44:55;6.20;99.90
67750;DHT22;54550;48.838;8.828;2023-05-25T01:50:22;6.10;99.90
67750;DHT22;54550;48.838;8.828;2023-05-25T01:53:09;6.20;99.90
67750;DHT22;54550;48.838;8.828;2023-05-25T01:55:59;6.10;99.90
67750;DHT22;54550;48.838;8.828;2023-05-25T01:58:27;6.00;99.90
67750;DHT22;54550;48.838;8.828;2023-05-25T02:00:56;6.10;99.90
67750;DHT22;54550;48.838;8.828;2023-05-25T02:03:24;6.00;99.90
67750;DHT22;54550;48.838;8.828;2023-05-25T02:05:50;5.90;99.90
67750;DHT22;54550;48.838;8.828;2023-05-25T02:08:16;6.00;99.90
67750;DHT22;54550;48.838;8.828;2023-05-25T02:10:42;5.80;99.90
67750;DHT22;54550;48.838;8.828;2023-05-25T02:13:07;5.90;99.90
67750;DHT22;54550;48.838;8.828;2023-05-25T02:15:33;5.80;99.90
67750;DHT22;54550;48.838;8.828;2023-05-25T02:17:59;5.70;99.90
67750;DHT22;54550;48.838;8.828;2023-05-25T02:20:25;5.70;99.90
67750;DHT22;54550;48.838;8.828;2023-05-25T02:22:51;5.70;99.90
67750;DHT22;54550;48.838;8.828;2023-05-25T02:25:16;5.80;99.90
67750;DHT22;54550;48.838;8.828;2023-05-25T02:27:42;5.70;99.90
67750;DHT22;54550;48.838;8.828;2023-05-25T02:30:08;5.70;99.90
67750;DHT22;54550;48.838;8.828;2023-05-25T02:32:34;5.70;99.90
67750;DHT22;54550;48.838;8.828;2023-05-25T02:35:00;5.70;99.90
67750;DHT22;54550;48.838;8.828;2023-05-25T02:37:25;5.60;99.90
67750;DHT22;54550;48.838;8.828;2023-05-25T02:39:51;5.70;99.90
67750;DHT22;54550;48.838;8.828;2023-05-25T02:42:17;5.70;99.90
67750;DHT22;54550;48.838;8.828;2023-05-25T02:44:42;5.60;99.90
67750;DHT22;54550;48.838;8.828;2023-05-25T02:47:14;5.60;99.90
67750;DHT22;54550;48.838;8.828;2023-05-25T02:49:40;5.50;99.90
67750;DHT22;54550;48.838;8.828;2023-05-25T02:52:05;5.40;99.90
67750;DHT22;54550;48.838;8.828;2023-05-25T02:54:31;5.40;99.90
67750;DHT22;54550;48.838;8.828;2023-05-25T02:56:56;5.30;99.90
67750;DHT22;54550;48.838;8.828;2023-05-25T02:59:22;5.20;99.90
67750;DHT22;54550;48.838;8.828;2023-05-25T03:01:49;5.10;99.90
67750;DHT22;54550;48.838;8.828;2023-05-25T03:04:15;5.00;99.90
67750;DHT22;54550;48.838;8.828;2023-05-25T03:06:40;5.10;99.90
67750;DHT22;54550;48.838;8.828;2023-05-25T03:09:06;5.10;99.90
67750;DHT22;54550;48.838;8.828;2023-05-25T03:11:32;5.00;99.90
67750;DHT22;54550;48.838;8.828;2023-05-25T03:13:58;5.10;99.90
67750;DHT22;54550;48.838;8.828;2023-05-25T03:16:24;5.10;99.90
67750;DHT22;54550;48.838;8.828;2023-05-25T03:18:50;5.00;99.90
67750;DHT22;54550;48.838;8.828;2023-05-25T03:21:15;4.80;99.90
67750;DHT22;54550;48.838;8.828;2023-05-25T03:23:41;4.70;99.90
67750;DHT22;54550;48.838;8.828;2023-05-25T03:26:07;4.70;99.90
67750;DHT22;54550;48.838;8.828;2023-05-25T03:28:32;4.80;99.90
67750;DHT22;54550;48.838;8.828;2023-05-25T03:30:58;5.00;99.90
67750;DHT22;54550;48.838;8.828;2023-05-25T03:33:23;5.10;99.90
67750;DHT22;54550;48.838;8.828;2023-05-25T03:35:49;5.10;99.90
67750;DHT22;54550;48.838;8.828;2023-05-25T03:38:15;5.00;99.90
67750;DHT22;54550;48.838;8.828;2023-05-25T03:40:40;5.00;99.90
67750;DHT22;54550;48.838;8.828;2023-05-25T03:43:06;5.00;99.90
67750;DHT22;54550;48.838;8.828;2023-05-25T03:45:31;4.80;99.90
67750;DHT22;54550;48.838;8.828;2023-05-25T03:47:57;4.80;99.90
67750;DHT22;54550;48.838;8.828;2023-05-25T03:50:22;4.80;99.90
67750;DHT22;54550;48.838;8.828;2023-05-25T03:52:48;4.90;99.90
67750;DHT22;54550;48.838;8.828;2023-05-25T03:55:14;5.10;99.90
67750;DHT22;54550;48.838;8.828;2023-05-25T03:57:40;5.20;99.90
67750;DHT22;54550;48.838;8.828;2023-05-25T04:00:06;5.40;99.90
67750;DHT22;54550;48.838;8.828;2023-05-25T04:02:33;5.60;99.90
67750;DHT22;54550;48.838;8.828;2023-05-25T04:04:59;6.10;99.90
67750;DHT22;54550;48.838;8.828;2023-05-25T04:07:25;6.30;99.90
67750;DHT22;54550;48.838;8.828;2023-05-25T04:09:52;6.60;99.90
67750;DHT22;54550;48.838;8.828;2023-05-25T04:12:17;6.90;99.90
67750;DHT22;54550;48.838;8.828;2023-05-25T04:14:43;6.90;99.90
67750;DHT22;54550;48.838;8.828;2023-05-25T04:17:08;6.90;99.90
67750;DHT22;54550;48.838;8.828;2023-05-25T04:19:34;6.90;99.90
67750;DHT22;54550;48.838;8.828;2023-05-25T04:22:00;7.10;99.90
67750;DHT22;54550;48.838;8.828;2023-05-25T04:24:25;7.30;99.90
67750;DHT22;54550;48.838;8.828;2023-05-25T04:26:52;7.70;99.90
67750;DHT22;54550;48.838;8.828;2023-05-25T04:29:17;8.00;99.90
67750;DHT22;54550;48.838;8.828;2023-05-25T04:31:43;8.40;99.90
67750;DHT22;54550;48.838;8.828;2023-05-25T04:34:10;8.70;99.90
67750;DHT22;54550;48.838;8.828;2023-05-25T04:36:35;8.90;99.90
67750;DHT22;54550;48.838;8.828;2023-05-25T04:39:04;9.20;99.90
67750;DHT22;54550;48.838;8.828;2023-05-25T04:41:30;9.30;99.90
67750;DHT22;54550;48.838;8.828;2023-05-25T04:43:55;9.40;99.90
67750;DHT22;54550;48.838;8.828;2023-05-25T04:46:22;9.60;99.90
67750;DHT22;54550;48.838;8.828;2023-05-25T04:48:47;9.80;99.90
67750;DHT22;54550;48.838;8.828;2023-05-25T04:51:13;10.20;99.90
67750;DHT22;54550;48.838;8.828;2023-05-25T04:53:38;10.50;99.90
67750;DHT22;54550;48.838;8.828;2023-05-25T04:56:04;10.60;99.90
67750;DHT22;54550;48.838;8.828;2023-05-25T04:58:30;10.80;99.90
67750;DHT22;54550;48.838;8.828;2023-05-25T05:00:57;11.00;99.90
67750;DHT22;54550;48.838;8.828;2023-05-25T05:03:22;11.00;99.90
67750;DHT22;54550;48.838;8.828;2023-05-25T05:05:48;10.80;99.90
67750;DHT22;54550;48.838;8.828;2023-05-25T05:08:14;10.40;99.90
67750;DHT22;54550;48.838;8.828;2023-05-25T05:10:39;10.60;99.90
67750;DHT22;54550;48.838;8.828;2023-05-25T05:13:05;10.90;99.90
67750;DHT22;54550;48.838;8.828;2023-05-25T05:15:30;11.20;99.90
67750;DHT22;54550;48.838;8.828;2023-05-25T05:17:57;11.10;99.90
67750;DHT22;54550;48.838;8.828;2023-05-25T05:20:23;10.70;99.90
67750;DHT22;54550;48.838;8.828;2023-05-25T05:22:49;10.50;99.90
67750;DHT22;54550;48.838;8.828;2023-05-25T05:25:14;10.40;99.90
67750;DHT22;54550;48.838;8.828;2023-05-25T05:27:40;10.40;99.90
67750;DHT22;54550;48.838;8.828;2023-05-25T05:30:06;10.50;99.90
67750;DHT22;54550;48.838;8.828;2023-05-25T05:32:32;10.70;99.90
67750;DHT22;54550;48.838;8.828;2023-05-25T05:34:57;10.60;99.90
67750;DHT22;54550;48.838;8.828;2023-05-25T05:37:23;10.60;99.90
67750;DHT22;54550;48.838;8.828;2023-05-25T05:39:48;10.90;99.90
67750;DHT22;54550;48.838;8.828;2023-05-25T05:42:16;11.10;99.90
67750;DHT22;54550;48.838;8.828;2023-05-25T05:44:42;11.00;99.90
67750;DHT22;54550;48.838;8.828;2023-05-25T05:47:07;10.70;99.90
67750;DHT22;54550;48.838;8.828;2023-05-25T05:49:33;10.80;99.90
67750;DHT22;54550;48.838;8.828;2023-05-25T05:51:59;11.00;99.90
67750;DHT22;54550;48.838;8.828;2023-05-25T05:54:24;11.20;99.90
67750;DHT22;54550;48.838;8.828;2023-05-25T05:56:52;11.30;99.90
67750;DHT22;54550;48.838;8.828;2023-05-25T05:59:19;11.60;99.90
67750;DHT22;54550;48.838;8.828;2023-05-25T06:01:45;11.60;99.90
67750;DHT22;54550;48.838;8.828;2023-05-25T06:04:11;11.70;99.90
67750;DHT22;54550;48.838;8.828;2023-05-25T06:06:36;11.80;99.90
67750;DHT22;54550;48.838;8.828;2023-05-25T06:09:04;12.00;99.90
67750;DHT22;54550;48.838;8.828;2023-05-25T06:11:35;12.00;99.90
67750;DHT22;54550;48.838;8.828;2023-05-25T06:14:02;11.70;99.90
67750;DHT22;54550;48.838;8.828;2023-05-25T06:16:27;11.80;99.90
67750;DHT22;54550;48.838;8.828;2023-05-25T06:18:53;12.00;99.90
67750;DHT22;54550;48.838;8.828;2023-05-25T06:21:18;12.30;99.90
67750;DHT22;54550;48.838;8.828;2023-05-25T06:23:44;12.40;99.90
67750;DHT22;54550;48.838;8.828;2023-05-25T06:26:09;12.30;99.90
67750;DHT22;54550;48.838;8.828;2023-05-25T06:28:35;12.50;99.90
67750;DHT22;54550;48.838;8.828;2023-05-25T06:31:01;12.90;99.90
67750;DHT22;54550;48.838;8.828;2023-05-25T06:33:26;13.30;99.90
67750;DHT22;54550;48.838;8.828;2023-05-25T06:35:52;13.50;99.90
67750;DHT22;54550;48.838;8.828;2023-05-25T06:38:20;13.50;99.90
67750;DHT22;54550;48.838;8.828;2023-05-25T06:40:46;13.30;99.90
67750;DHT22;54550;48.838;8.828;2023-05-25T06:43:11;13.10;99.90
67750;DHT22;54550;48.838;8.828;2023-05-25T06:45:37;13.20;99.90
67750;DHT22;54550;48.838;8.828;2023-05-25T06:48:03;13.40;99.90
67750;DHT22;54550;48.838;8.828;2023-05-25T06:50:28;13.60;99.90
67750;DHT22;54550;48.838;8.828;2023-05-25T06:52:54;13.70;99.90
67750;DHT22;54550;48.838;8.828;2023-05-25T06:55:19;13.50;99.90
67750;DHT22;54550;48.838;8.828;2023-05-25T06:57:45;13.70;99.90
67750;DHT22;54550;48.838;8.828;2023-05-25T07:00:11;13.90;99.90
67750;DHT22;54550;48.838;8.828;2023-05-25T07:02:37;13.30;99.90
67750;DHT22;54550;48.838;8.828;2023-05-25T07:05:03;13.20;99.90
67750;DHT22;54550;48.838;8.828;2023-05-25T07:07:30;13.10;99.90
67750;DHT22;54550;48.838;8.828;2023-05-25T07:09:56;13.20;99.90
67750;DHT22;54550;48.838;8.828;2023-05-25T07:12:21;13.60;99.90
67750;DHT22;54550;48.838;8.828;2023-05-25T07:14:47;13.70;99.90
67750;DHT22;54550;48.838;8.828;2023-05-25T07:17:13;13.50;99.90
67750;DHT22;54550;48.838;8.828;2023-05-25T07:19:39;13.10;99.90
67750;DHT22;54550;48.838;8.828;2023-05-25T07:22:07;12.50;99.90
67750;DHT22;54550;48.838;8.828;2023-05-25T07:24:34;12.30;99.90
67750;DHT22;54550;48.838;8.828;2023-05-25T07:27:00;12.30;99.90
67750;DHT22;54550;48.838;8.828;2023-05-25T07:29:26;12.40;99.90
67750;DHT22;54550;48.838;8.828;2023-05-25T07:31:52;12.20;99.90
67750;DHT22;54550;48.838;8.828;2023-05-25T07:34:18;12.00;99.90
67750;DHT22;54550;48.838;8.828;2023-05-25T07:36:44;12.00;99.90
67750;DHT22;54550;48.838;8.828;2023-05-25T07:39:10;12.50;99.90
67750;DHT22;54550;48.838;8.828;2023-05-25T07:41:36;12.90;99.90
67750;DHT22;54550;48.838;8.828;2023-05-25T07:44:02;13.10;99.90
67750;DHT22;54550;48.838;8.828;2023-05-25T07:46:27;13.50;99.90
67750;DHT22;54550;48.838;8.828;2023-05-25T07:48:53;13.90;99.90
67750;DHT22;54550;48.838;8.828;2023-05-25T07:51:20;14.30;99.90
67750;DHT22;54550;48.838;8.828;2023-05-25T07:53:47;14.10;99.90
67750;DHT22;54550;48.838;8.828;2023-05-25T07:56:13;14.10;99.90
67750;DHT22;54550;48.838;8.828;2023-05-25T07:58:39;14.10;99.90
67750;DHT22;54550;48.838;8.828;2023-05-25T08:01:05;14.20;99.90
67750;DHT22;54550;48.838;8.828;2023-05-25T08:03:30;14.50;99.90
67750;DHT22;54550;48.838;8.828;2023-05-25T08:05:56;14.50;99.90
67750;DHT22;54550;48.838;8.828;2023-05-25T08:08:22;14.60;99.90
67750;DHT22;54550;48.838;8.828;2023-05-25T08:10:49;14.60;99.90
67750;DHT22;54550;48.838;8.828;2023-05-25T08:13:14;15.00;99.90
67750;DHT22;54550;48.838;8.828;2023-05-25T08:15:40;14.90;99.90
67750;DHT22;54550;48.838;8.828;2023-05-25T08:18:05;15.00;99.90
67750;DHT22;54550;48.838;8.828;2023-05-25T08:20:31;15.20;99.90
67750;DHT22;54550;48.838;8.828;2023-05-25T08:22:57;14.90;99.90
67750;DHT22;54550;48.838;8.828;2023-05-25T08:25:23;14.90;99.90
67750;DHT22;54550;48.838;8.828;2023-05-25T08:27:49;14.80;99.90
67750;DHT22;54550;48.838;8.828;2023-05-25T08:30:14;15.40;99.90
67750;DHT22;54550;48.838;8.828;2023-05-25T08:32:40;15.90;99.90
67750;DHT22;54550;48.838;8.828;2023-05-25T08:35:06;16.40;99.90
67750;DHT22;54550;48.838;8.828;2023-05-25T08:37:32;16.80;99.90
67750;DHT22;54550;48.838;8.828;2023-05-25T08:39:58;17.10;99.90
67750;DHT22;54550;48.838;8.828;2023-05-25T08:42:27;17.20;99.90
67750;DHT22;54550;48.838;8.828;2023-05-25T08:44:52;17.10;99.90
67750;DHT22;54550;48.838;8.828;2023-05-25T08:47:18;17.00;99.90
67750;DHT22;54550;48.838;8.828;2023-05-25T08:49:47;17.00;99.90
67750;DHT22;54550;48.838;8.828;2023-05-25T08:52:14;17.10;99.90
67750;DHT22;54550;48.838;8.828;2023-05-25T08:54:43;17.40;99.90
67750;DHT22;54550;48.838;8.828;2023-05-25T08:57:19;17.50;99.90
67750;DHT22;54550;48.838;8.828;2023-05-25T09:00:04;17.20;99.90
67750;DHT22;54550;48.838;8.828;2023-05-25T09:05:19;16.70;99.90
67750;DHT22;54550;48.838;8.828;2023-05-25T09:07:45;16.30;99.90
67750;DHT22;54550;48.838;8.828;2023-05-25T09:10:11;16.00;99.90
67750;DHT22;54550;48.838;8.828;2023-05-25T09:12:38;16.00;99.90
67750;DHT22;54550;48.838;8.828;2023-05-25T09:15:05;16.10;99.90
67750;DHT22;54550;48.838;8.828;2023-05-25T09:17:34;17.00;99.90
67750;DHT22;54550;48.838;8.828;2023-05-25T09:20:00;17.10;99.90
67750;DHT22;54550;48.838;8.828;2023-05-25T09:22:25;17.10;99.90
67750;DHT22;54550;48.838;8.828;2023-05-25T09:24:51;17.50;99.90
67750;DHT22;54550;48.838;8.828;2023-05-25T09:27:18;18.20;99.90
67750;DHT22;54550;48.838;8.828;2023-05-25T09:29:48;19.10;99.50
67750;DHT22;54550;48.838;8.828;2023-05-25T09:32:14;19.80;99.50
67750;DHT22;54550;48.838;8.828;2023-05-25T09:34:41;19.40;98.90
67750;DHT22;54550;48.838;8.828;2023-05-25T09:37:10;19.10;99.20
67750;DHT22;54550;48.838;8.828;2023-05-25T09:39:36;18.80;99.40
67750;DHT22;54550;48.838;8.828;2023-05-25T09:42:02;18.70;99.80
67750;DHT22;54550;48.838;8.828;2023-05-25T09:44:28;18.90;99.90
67750;DHT22;54550;48.838;8.828;2023-05-25T09:46:53;19.00;99.20
67750;DHT22;54550;48.838;8.828;2023-05-25T09:49:20;18.80;99.20
67750;DHT22;54550;48.838;8.828;2023-05-25T09:51:46;18.90;99.90
67750;DHT22;54550;48.838;8.828;2023-05-25T09:54:12;19.50;99.40
67750;DHT22;54550;48.838;8.828;2023-05-25T09:56:38;19.30;99.10
67750;DHT22;54550;48.838;8.828;2023-05-25T09:59:05;19.10;99.30
67750;DHT22;54550;48.838;8.828;2023-05-25T10:01:31;19.10;99.00
67750;DHT22;54550;48.838;8.828;2023-05-25T10:03:57;19.20;99.00
67750;DHT22;54550;48.838;8.828;2023-05-25T10:06:24;19.40;99.30
67750;DHT22;54550;48.838;8.828;2023-05-25T10:08:51;19.60;98.00
67750;DHT22;54550;48.838;8.828;2023-05-25T10:11:18;19.50;98.30
67750;DHT22;54550;48.838;8.828;2023-05-25T10:13:45;19.30;98.40
67750;DHT22;54550;48.838;8.828;2023-05-25T10:16:15;19.20;98.60
67750;DHT22;54550;48.838;8.828;2023-05-25T10:18:47;19.40;99.00
67750;DHT22;54550;48.838;8.828;2023-05-25T10:21:15;19.70;98.30
67750;DHT22;54550;48.838;8.828;2023-05-25T10:23:46;20.50;97.80
67750;DHT22;54550;48.838;8.828;2023-05-25T10:26:14;20.60;97.50
67750;DHT22;54550;48.838;8.828;2023-05-25T10:28:42;21.20;97.40
67750;DHT22;54550;48.838;8.828;2023-05-25T10:31:08;21.70;96.10
67750;DHT22;54550;48.838;8.828;2023-05-25T10:33:35;22.20;95.40
67750;DHT22;54550;48.838;8.828;2023-05-25T10:36:02;21.90;96.00
67750;DHT22;54550;48.838;8.828;2023-05-25T10:38:27;21.50;95.70
67750;DHT22;54550;48.838;8.828;2023-05-25T10:40:57;21.10;97.10
67750;DHT22;54550;48.838;8.828;2023-05-25T10:43:23;21.00;96.80
67750;DHT22;54550;48.838;8.828;2023-05-25T10:45:49;21.00;96.80
67750;DHT22;54550;48.838;8.828;2023-05-25T10:48:14;20.90;97.60
67750;DHT22;54550;48.838;8.828;2023-05-25T10:50:40;20.60;96.50
67750;DHT22;54550;48.838;8.828;2023-05-25T10:53:14;21.00;98.60
67750;DHT22;54550;48.838;8.828;2023-05-25T10:56:13;21.80;96.10
67750;DHT22;54550;48.838;8.828;2023-05-25T10:58:34;21.80;96.20
67750;DHT22;54550;48.838;8.828;2023-05-25T11:01:06;21.20;96.20
67750;DHT22;54550;48.838;8.828;2023-05-25T11:06:17;20.70;96.10
67750;DHT22;54550;48.838;8.828;2023-05-25T11:08:50;20.30;97.40
67750;DHT22;54550;48.838;8.828;2023-05-25T11:11:16;20.30;97.30
67750;DHT22;54550;48.838;8.828;2023-05-25T11:13:45;20.30;96.90
67750;DHT22;54550;48.838;8.828;2023-05-25T11:18:40;20.10;97.70
67750;DHT22;54550;48.838;8.828;2023-05-25T11:26:24;20.70;96.40
67750;DHT22;54550;48.838;8.828;2023-05-25T11:28:51;20.10;97.40
67750;DHT22;54550;48.838;8.828;2023-05-25T11:31:20;20.20;96.80
67750;DHT22;54550;48.838;8.828;2023-05-25T11:33:47;20.60;97.40
67750;DHT22;54550;48.838;8.828;2023-05-25T11:36:13;21.50;95.90
67750;DHT22;54550;48.838;8.828;2023-05-25T11:38:42;21.90;96.60
67750;DHT22;54550;48.838;8.828;2023-05-25T11:41:19;22.30;95.50
67750;DHT22;54550;48.838;8.828;2023-05-25T11:43:49;22.20;95.10
67750;DHT22;54550;48.838;8.828;2023-05-25T11:46:15;21.40;96.60
67750;DHT22;54550;48.838;8.828;2023-05-25T11:48:50;21.70;95.90
67750;DHT22;54550;48.838;8.828;2023-05-25T11:51:20;22.00;94.50
67750;DHT22;54550;48.838;8.828;2023-05-25T11:53:46;21.50;95.60
67750;DHT22;54550;48.838;8.828;2023-05-25T11:56:12;21.00;95.40
67750;DHT22;54550;48.838;8.828;2023-05-25T11:58:38;20.70;96.10
67750;DHT22;54550;48.838;8.828;2023-05-25T12:01:16;20.30;95.90
67750;DHT22;54550;48.838;8.828;2023-05-25T12:03:46;20.40;96.80
67750;DHT22;54550;48.838;8.828;2023-05-25T12:06:25;21.00;96.00
67750;DHT22;54550;48.838;8.828;2023-05-25T12:08:51;21.40;96.30
67750;DHT22;54550;48.838;8.828;2023-05-25T12:11:16;21.90;95.20
67750;DHT22;54550;48.838;8.828;2023-05-25T12:13:42;22.00;94.60
67750;DHT22;54550;48.838;8.828;2023-05-25T12:16:07;22.30;94.30
67750;DHT22;54550;48.838;8.828;2023-05-25T12:18:33;22.50;94.30
67750;DHT22;54550;48.838;8.828;2023-05-25T12:20:58;22.60;94.20
67750;DHT22;54550;48.838;8.828;2023-05-25T12:23:24;22.70;94.50
67750;DHT22;54550;48.838;8.828;2023-05-25T12:26:04;22.60;94.20
67750;DHT22;54550;48.838;8.828;2023-05-25T12:28:29;22.50;92.90
67750;DHT22;54550;48.838;8.828;2023-05-25T12:30:55;22.50;93.20
67750;DHT22;54550;48.838;8.828;2023-05-25T12:33:21;22.80;95.10
67750;DHT22;54550;48.838;8.828;2023-05-25T12:35:47;23.20;93.80
67750;DHT22;54550;48.838;8.828;2023-05-25T12:38:18;23.20;93.60
67750;DHT22;54550;48.838;8.828;2023-05-25T12:40:44;23.00;93.50
67750;DHT22;54550;48.838;8.828;2023-05-25T12:43:10;23.30;92.90
67750;DHT22;54550;48.838;8.828;2023-05-25T12:45:39;22.10;93.30
67750;DHT22;54550;48.838;8.828;2023-05-25T12:48:05;22.00;93.60
67750;DHT22;54550;48.838;8.828;2023-05-25T12:50:31;22.60;94.30
67750;DHT22;54550;48.838;8.828;2023-05-25T12:53:00;23.20;93.30
67750;DHT22;54550;48.838;8.828;2023-05-25T12:55:26;23.10;93.30
67750;DHT22;54550;48.838;8.828;2023-05-25T12:57:53;23.40;92.80
67750;DHT22;54550;48.838;8.828;2023-05-25T13:00:19;23.30;92.00
67750;DHT22;54550;48.838;8.828;2023-05-25T13:02:45;23.60;93.50
67750;DHT22;54550;48.838;8.828;2023-05-25T13:05:17;23.80;91.70
67750;DHT22;54550;48.838;8.828;2023-05-25T13:07:43;24.50;91.40
67750;DHT22;54550;48.838;8.828;2023-05-25T13:10:08;25.10;91.20
67750;DHT22;54550;48.838;8.828;2023-05-25T13:12:34;24.20;91.20
67750;DHT22;54550;48.838;8.828;2023-05-25T13:14:59;24.60;91.30
67750;DHT22;54550;48.838;8.828;2023-05-25T13:17:25;24.20;91.00
67750;DHT22;54550;48.838;8.828;2023-05-25T13:19:50;24.30;91.90
67750;DHT22;54550;48.838;8.828;2023-05-25T13:22:16;24.80;91.20
67750;DHT22;54550;48.838;8.828;2023-05-25T13:24:41;24.00;91.00
67750;DHT22;54550;48.838;8.828;2023-05-25T13:27:07;23.80;91.80
67750;DHT22;54550;48.838;8.828;2023-05-25T13:29:32;24.00;91.70
67750;DHT22;54550;48.838;8.828;2023-05-25T13:31:57;24.40;91.10
67750;DHT22;54550;48.838;8.828;2023-05-25T13:34:23;24.10;90.70
67750;DHT22;54550;48.838;8.828;2023-05-25T13:36:48;23.60;91.10
67750;DHT22;54550;48.838;8.828;2023-05-25T13:39:14;24.00;91.80
67750;DHT22;54550;48.838;8.828;2023-05-25T13:41:39;24.50;91.10
67750;DHT22;54550;48.838;8.828;2023-05-25T13:44:05;25.30;90.60
67750;DHT22;54550;48.838;8.828;2023-05-25T13:46:30;25.30;90.00
67750;DHT22;54550;48.838;8.828;2023-05-25T13:48:56;24.20;90.70
67750;DHT22;54550;48.838;8.828;2023-05-25T13:51:22;24.40;91.00
67750;DHT22;54550;48.838;8.828;2023-05-25T13:53:47;24.40;90.80
67750;DHT22;54550;48.838;8.828;2023-05-25T13:56:13;24.80;91.30
67750;DHT22;54550;48.838;8.828;2023-05-25T13:58:38;24.70;90.00
67750;DHT22;54550;48.838;8.828;2023-05-25T14:01:04;25.80;92.60
67750;DHT22;54550;48.838;8.828;2023-05-25T14:03:30;26.60;86.80
67750;DHT22;54550;48.838;8.828;2023-05-25T14:05:56;26.70;86.90
67750;DHT22;54550;48.838;8.828;2023-05-25T14:08:21;26.60;85.90
67750;DHT22;54550;48.838;8.828;2023-05-25T14:10:47;25.80;87.90
67750;DHT22;54550;48.838;8.828;2023-05-25T14:13:12;25.20;88.20
67750;DHT22;54550;48.838;8.828;2023-05-25T14:15:38;23.30;90.20
67750;DHT22;54550;48.838;8.828;2023-05-25T14:18:03;23.20;91.20
67750;DHT22;54550;48.838;8.828;2023-05-25T14:20:29;23.30;90.80
67750;DHT22;54550;48.838;8.828;2023-05-25T14:22:58;24.00;91.20
67750;DHT22;54550;48.838;8.828;2023-05-25T14:25:23;24.50;90.30
67750;DHT22;54550;48.838;8.828;2023-05-25T14:27:49;24.60;90.00
67750;DHT22;54550;48.838;8.828;2023-05-25T14:30:14;25.20;88.60
67750;DHT22;54550;48.838;8.828;2023-05-25T14:32:40;24.20;89.90
67750;DHT22;54550;48.838;8.828;2023-05-25T14:35:06;24.10;90.20
67750;DHT22;54550;48.838;8.828;2023-05-25T14:37:31;24.10;90.70
67750;DHT22;54550;48.838;8.828;2023-05-25T14:39:57;24.90;90.60
67750;DHT22;54550;48.838;8.828;2023-05-25T14:42:24;26.20;89.30
67750;DHT22;54550;48.838;8.828;2023-05-25T14:44:50;26.70;85.20
67750;DHT22;54550;48.838;8.828;2023-05-25T14:47:15;26.70;84.30
67750;DHT22;54550;48.838;8.828;2023-05-25T14:49:41;26.60;84.20
67750;DHT22;54550;48.838;8.828;2023-05-25T14:52:06;25.70;84.10
67750;DHT22;54550;48.838;8.828;2023-05-25T14:54:32;25.50;87.50
67750;DHT22;54550;48.838;8.828;2023-05-25T14:56:58;26.20;86.30
67750;DHT22;54550;48.838;8.828;2023-05-25T14:59:23;26.50;86.70
67750;DHT22;54550;48.838;8.828;2023-05-25T15:01:49;26.70;84.20
67750;DHT22;54550;48.838;8.828;2023-05-25T15:04:14;26.50;84.00
67750;DHT22;54550;48.838;8.828;2023-05-25T15:06:40;26.00;84.70
67750;DHT22;54550;48.838;8.828;2023-05-25T15:09:05;26.30;84.90
67750;DHT22;54550;48.838;8.828;2023-05-25T15:11:31;26.90;83.70
67750;DHT22;54550;48.838;8.828;2023-05-25T15:13:56;27.60;82.90
67750;DHT22;54550;48.838;8.828;2023-05-25T15:16:23;27.20;83.40
67750;DHT22;54550;48.838;8.828;2023-05-25T15:18:48;27.00;82.80
67750;DHT22;54550;48.838;8.828;2023-05-25T15:21:15;27.10;83.60
67750;DHT22;54550;48.838;8.828;2023-05-25T15:23:41;26.90;82.10
67750;DHT22;54550;48.838;8.828;2023-05-25T15:26:06;27.60;80.90
67750;DHT22;54550;48.838;8.828;2023-05-25T15:28:32;28.00;81.90
67750;DHT22;54550;48.838;8.828;2023-05-25T15:30:59;27.80;78.90
67750;DHT22;54550;48.838;8.828;2023-05-25T15:33:24;26.80;81.10
67750;DHT22;54550;48.838;8.828;2023-05-25T15:35:50;26.70;81.40
67750;DHT22;54550;48.838;8.828;2023-05-25T15:38:15;26.90;81.40
67750;DHT22;54550;48.838;8.828;2023-05-25T15:40:41;27.40;82.10
67750;DHT22;54550;48.838;8.828;2023-05-25T15:43:06;26.90;80.60
67750;DHT22;54550;48.838;8.828;2023-05-25T15:45:32;26.20;81.60
67750;DHT22;54550;48.838;8.828;2023-05-25T15:47:57;27.00;83.40